createdAt,value
2023-02-28T00:00:45.550Z,7.25
2023-02-28T00:03:31.019Z,7.31
2023-02-28T00:06:15.005Z,6.82
2023-02-28T00:08:58.866Z,7.20
2023-02-28T00:11:42.705Z,6.88
2023-02-28T00:14:26.667Z,7.20
2023-02-28T00:17:10.552Z,7.13
2023-02-28T00:19:55.930Z,7.24
2023-02-28T00:22:41.331Z,7.48
2023-02-28T00:25:27.234Z,7.16
2023-02-28T00:28:11.020Z,6.64
2023-02-28T00:30:55.236Z,7.06
2023-02-28T00:33:39.247Z,7.36
2023-02-28T00:36:24.507Z,7.53
2023-02-28T00:39:08.450Z,7.31
2023-02-28T00:41:52.232Z,7.12
2023-02-28T00:44:36.128Z,6.62
2023-02-28T00:47:19.969Z,7.10
2023-02-28T00:50:04.479Z,7.07
2023-02-28T00:52:50.133Z,7.13
2023-02-28T00:55:34.086Z,6.75
2023-02-28T00:58:17.974Z,6.91
2023-02-28T01:01:02.153Z,7.31
2023-02-28T01:03:45.996Z,6.96
2023-02-28T01:06:29.822Z,6.89
2023-02-28T01:09:15.081Z,7.13
2023-02-28T01:11:59.907Z,6.62
2023-02-28T01:14:43.844Z,6.26
2023-02-28T01:17:27.661Z,6.65
2023-02-28T01:20:12.804Z,6.99
2023-02-28T01:22:56.760Z,6.82
2023-02-28T01:25:41.960Z,6.35
2023-02-28T01:28:25.858Z,6.58
2023-02-28T01:31:11.312Z,6.70
2023-02-28T01:33:55.561Z,6.27
2023-02-28T01:36:39.411Z,5.85
2023-02-28T01:39:23.204Z,6.01
2023-02-28T01:42:11.041Z,6.18
2023-02-28T01:45:01.866Z,6.44
2023-02-28T01:47:49.277Z,6.41
2023-02-28T01:50:36.609Z,6.12
2023-02-28T01:53:26.906Z,6.09
2023-02-28T01:56:14.244Z,6.09
2023-02-28T01:59:00.054Z,6.21
2023-02-28T02:01:44.699Z,5.75
2023-02-28T02:04:34.726Z,5.87
2023-02-28T02:07:20.665Z,6.03
2023-02-28T02:10:09.524Z,5.97
2023-02-28T02:13:10.743Z,5.88
2023-02-28T02:16:28.322Z,6.24
2023-02-28T02:19:32.434Z,6.34
2023-02-28T02:22:52.192Z,6.83
2023-02-28T02:25:41.561Z,6.49
2023-02-28T02:28:57.556Z,6.07
2023-02-28T02:31:57.485Z,6.15
2023-02-28T02:34:58.920Z,5.73
2023-02-28T02:37:50.918Z,5.61
2023-02-28T02:40:40.744Z,6.19
2023-02-28T02:43:31.372Z,6.29
2023-02-28T02:46:21.355Z,6.59
2023-02-28T02:49:11.355Z,6.75
2023-02-28T02:51:59.846Z,7.13
2023-02-28T02:54:46.786Z,7.19
2023-02-28T02:57:36.487Z,6.18
2023-02-28T03:00:25.477Z,6.39
2023-02-28T03:03:11.766Z,6.03
2023-02-28T03:05:55.657Z,6.12
2023-02-28T03:08:41.271Z,5.87
2023-02-28T03:11:25.424Z,6.35
2023-02-28T03:14:39.360Z,6.20
2023-02-28T03:18:06.309Z,6.56
2023-02-28T03:21:01.877Z,6.29
2023-02-28T03:23:58.405Z,6.50
2023-02-28T03:26:45.596Z,6.79
2023-02-28T03:29:35.856Z,6.42
2023-02-28T03:32:26.452Z,6.36
2023-02-28T03:35:16.749Z,6.24
2023-02-28T03:38:07.382Z,6.17
2023-02-28T03:40:57.333Z,5.96
2023-02-28T03:43:45.644Z,6.37
2023-02-28T03:46:34.670Z,5.96
2023-02-28T03:49:22.215Z,5.40
2023-02-28T03:52:09.566Z,5.45
2023-02-28T03:54:56.929Z,5.85
2023-02-28T03:57:51.756Z,5.99
2023-02-28T04:00:38.108Z,5.94
2023-02-28T04:03:21.947Z,6.36
2023-02-28T04:06:08.226Z,6.59
2023-02-28T04:08:52.490Z,6.42
2023-02-28T04:11:38.899Z,6.67
2023-02-28T04:14:24.961Z,6.32
2023-02-28T04:17:08.742Z,5.76
2023-02-28T04:19:52.539Z,5.78
2023-02-28T04:22:36.379Z,5.81
2023-02-28T04:25:20.122Z,6.17
2023-02-28T04:28:03.892Z,5.93
2023-02-28T04:30:49.036Z,6.09
2023-02-28T04:33:34.609Z,6.40
2023-02-28T04:36:19.024Z,5.85
2023-02-28T04:39:02.881Z,6.08
2023-02-28T04:41:46.994Z,5.79
2023-02-28T04:44:30.910Z,5.67
2023-02-28T04:47:16.137Z,6.20
2023-02-28T04:50:00.165Z,5.92
2023-02-28T04:52:43.956Z,5.92
2023-02-28T04:55:27.903Z,5.76
2023-02-28T04:58:11.936Z,5.64
2023-02-28T05:00:56.253Z,6.14
2023-02-28T05:03:42.587Z,6.27
2023-02-28T05:06:28.660Z,6.29
2023-02-28T05:09:13.662Z,5.79
2023-02-28T05:11:58.034Z,5.34
2023-02-28T05:14:41.840Z,5.55
2023-02-28T05:17:25.709Z,5.67
2023-02-28T05:20:15.726Z,5.47
2023-02-28T05:23:01.817Z,5.79
2023-02-28T05:25:45.686Z,5.74
2023-02-28T05:28:29.808Z,5.47
2023-02-28T05:31:13.918Z,5.83
2023-02-28T05:33:57.650Z,6.03
2023-02-28T05:36:43.300Z,5.90
2023-02-28T05:39:27.227Z,6.33
2023-02-28T05:42:11.328Z,6.55
2023-02-28T05:44:55.149Z,6.57
2023-02-28T05:47:39.048Z,6.74
2023-02-28T05:50:22.816Z,6.04
2023-02-28T05:53:08.051Z,5.95
2023-02-28T05:55:51.836Z,6.22
2023-02-28T05:58:35.913Z,5.70
2023-02-28T06:01:34.110Z,5.77
2023-02-28T06:04:30.994Z,5.26
2023-02-28T06:07:16.191Z,5.87
2023-02-28T06:10:01.457Z,5.97
2023-02-28T06:12:47.081Z,6.18
2023-02-28T06:15:31.418Z,6.06
2023-02-28T06:18:15.442Z,5.67
2023-02-28T06:20:59.383Z,5.74
2023-02-28T06:23:43.320Z,5.79
2023-02-28T06:26:28.649Z,6.05
2023-02-28T06:29:12.515Z,6.11
2023-02-28T06:31:56.496Z,5.28
2023-02-28T06:34:40.396Z,6.03
2023-02-28T06:37:27.128Z,5.53
2023-02-28T06:40:14.073Z,5.66
2023-02-28T06:42:59.271Z,5.57
2023-02-28T06:45:45.418Z,5.45
2023-02-28T06:48:29.390Z,5.47
2023-02-28T06:51:16.128Z,5.46
2023-02-28T06:53:59.919Z,5.50
2023-02-28T06:56:43.707Z,5.42
2023-02-28T06:59:28.954Z,4.70
2023-02-28T07:02:12.611Z,5.27
2023-02-28T07:04:56.764Z,5.17
2023-02-28T07:07:44.666Z,5.22
2023-02-28T07:10:28.527Z,5.34
2023-02-28T07:13:12.617Z,5.37
2023-02-28T07:15:59.873Z,5.37
2023-02-28T07:18:43.688Z,5.49
2023-02-28T07:21:27.742Z,5.50
2023-02-28T07:24:11.814Z,5.74
2023-02-28T07:26:55.613Z,5.74
2023-02-28T07:29:39.620Z,5.46
2023-02-28T07:32:25.089Z,5.61
2023-02-28T07:35:10.110Z,5.87
2023-02-28T07:37:54.229Z,5.66
2023-02-28T07:40:38.463Z,5.32
2023-02-28T07:43:22.306Z,5.65
2023-02-28T07:46:07.932Z,5.71
2023-02-28T07:48:53.905Z,5.45
2023-02-28T07:51:37.807Z,5.76
2023-02-28T07:54:21.717Z,5.50
2023-02-28T07:57:05.559Z,5.93
2023-02-28T07:59:49.386Z,6.20
2023-02-28T08:02:33.248Z,6.10
2023-02-28T08:05:21.827Z,6.95
2023-02-28T08:08:06.524Z,6.91
2023-02-28T08:10:50.415Z,6.67
2023-02-28T08:13:34.309Z,6.67
2023-02-28T08:16:22.997Z,6.12
2023-02-28T08:19:07.048Z,5.93
2023-02-28T08:21:52.384Z,6.20
2023-02-28T08:24:36.228Z,6.00
2023-02-28T08:27:19.986Z,6.19
2023-02-28T08:30:04.258Z,6.63
2023-02-28T08:32:49.170Z,6.58
2023-02-28T08:35:33.208Z,6.45
2023-02-28T08:38:18.516Z,6.43
2023-02-28T08:41:03.913Z,6.73
2023-02-28T08:43:47.714Z,6.56
2023-02-28T08:46:31.646Z,6.74
2023-02-28T08:49:18.154Z,6.66
2023-02-28T08:52:01.926Z,6.88
2023-02-28T08:54:47.021Z,6.73
2023-02-28T08:57:30.810Z,6.93
2023-02-28T09:00:15.664Z,7.10
2023-02-28T09:02:59.518Z,6.78
2023-02-28T09:05:43.405Z,6.67
2023-02-28T09:08:28.579Z,6.99
2023-02-28T09:11:14.261Z,7.43
2023-02-28T09:13:58.206Z,7.13
2023-02-28T09:16:42.164Z,7.20
2023-02-28T09:19:26.196Z,7.35
2023-02-28T09:22:10.405Z,7.25
2023-02-28T09:24:54.649Z,7.43
2023-02-28T09:27:41.841Z,6.97
2023-02-28T09:30:26.248Z,7.33
2023-02-28T09:33:10.822Z,8.03
2023-02-28T09:36:01.871Z,7.53
2023-02-28T09:38:48.901Z,7.24
2023-02-28T09:41:48.403Z,7.17
2023-02-28T09:44:39.796Z,8.03
2023-02-28T09:47:34.284Z,7.76
2023-02-28T09:50:33.965Z,8.49
2023-02-28T09:53:24.741Z,8.25
2023-02-28T09:56:12.351Z,7.53
2023-02-28T09:59:01.264Z,7.26
2023-02-28T10:01:57.370Z,6.86
2023-02-28T10:04:52.746Z,7.16
2023-02-28T10:07:56.090Z,7.29
2023-02-28T10:10:42.875Z,7.49
2023-02-28T10:13:34.277Z,7.37
2023-02-28T10:16:23.218Z,7.13
2023-02-28T10:19:14.178Z,7.47
2023-02-28T10:22:01.545Z,7.24
2023-02-28T10:24:47.803Z,7.05
2023-02-28T10:27:33.380Z,6.79
2023-02-28T10:30:17.564Z,7.05
2023-02-28T10:33:01.557Z,7.34
2023-02-28T10:35:46.787Z,7.33
2023-02-28T10:38:35.062Z,6.85
2023-02-28T10:41:29.961Z,7.31
2023-02-28T10:44:22.351Z,7.78
2023-02-28T10:47:06.356Z,7.98
2023-02-28T10:49:51.389Z,7.37
2023-02-28T10:52:39.962Z,7.60
2023-02-28T10:55:28.259Z,7.16
2023-02-28T10:58:34.045Z,7.74
2023-02-28T11:01:20.541Z,6.91
2023-02-28T11:04:05.273Z,7.03
2023-02-28T11:06:50.126Z,7.49
2023-02-28T11:09:37.136Z,7.69
2023-02-28T11:12:24.336Z,7.92
2023-02-28T11:15:23.052Z,7.79
2023-02-28T11:18:23.633Z,7.39
2023-02-28T11:21:08.336Z,7.69
2023-02-28T11:23:54.493Z,7.76
2023-02-28T11:26:43.057Z,7.89
2023-02-28T11:29:29.203Z,7.58
2023-02-28T11:32:20.785Z,7.63
2023-02-28T11:35:15.858Z,7.69
2023-02-28T11:38:00.209Z,8.02
2023-02-28T11:40:54.072Z,8.13
2023-02-28T11:43:57.871Z,8.37
2023-02-28T11:46:47.655Z,8.01
2023-02-28T11:49:40.308Z,8.10
2023-02-28T11:52:37.909Z,8.21
2023-02-28T11:55:26.134Z,8.55
2023-02-28T11:58:37.365Z,7.41
2023-02-28T12:01:32.983Z,7.39
2023-02-28T12:04:29.397Z,7.80
2023-02-28T12:07:21.367Z,8.20
2023-02-28T12:10:13.987Z,8.79
2023-02-28T12:13:09.609Z,7.58
2023-02-28T12:16:38.254Z,7.53
2023-02-28T12:19:28.191Z,7.70
2023-02-28T12:22:27.439Z,7.31
2023-02-28T12:25:39.956Z,7.36
2023-02-28T12:28:29.383Z,7.36
2023-02-28T12:31:20.744Z,8.13
2023-02-28T12:34:10.956Z,7.45
2023-02-28T12:36:58.431Z,7.89
2023-02-28T12:39:50.932Z,6.88
2023-02-28T12:42:38.969Z,7.12
2023-02-28T12:45:25.997Z,7.11
2023-02-28T12:48:14.909Z,7.28
2023-02-28T12:51:03.379Z,6.94
2023-02-28T12:53:57.816Z,6.87
2023-02-28T12:56:50.336Z,6.83
2023-02-28T12:59:40.701Z,6.83
2023-02-28T13:02:55.504Z,6.47
2023-02-28T13:06:15.782Z,6.62
2023-02-28T13:09:08.020Z,6.53
2023-02-28T13:11:53.979Z,6.73
2023-02-28T13:14:39.703Z,6.72
2023-02-28T13:17:27.107Z,6.35
2023-02-28T13:20:19.631Z,6.88
2023-02-28T13:23:03.694Z,6.54
2023-02-28T13:25:58.796Z,7.11
2023-02-28T13:29:30.982Z,6.79
2023-02-28T13:32:42.629Z,6.35
2023-02-28T13:35:49.875Z,6.12
2023-02-28T13:38:39.416Z,6.43
2023-02-28T13:41:47.742Z,6.28
2023-02-28T13:44:31.807Z,6.10
2023-02-28T13:47:33.904Z,5.88
2023-02-28T13:50:25.014Z,5.95
2023-02-28T13:53:40.423Z,5.85
2023-02-28T13:56:37.906Z,5.98
2023-02-28T13:59:30.459Z,5.62
2023-02-28T14:02:47.224Z,5.80
2023-02-28T14:05:34.774Z,5.92
2023-02-28T14:08:23.375Z,6.09
2023-02-28T14:11:08.937Z,5.88
2023-02-28T14:13:52.823Z,5.70
2023-02-28T14:16:43.430Z,5.78
2023-02-28T14:19:32.098Z,5.65
2023-02-28T14:22:40.064Z,5.55
2023-02-28T14:25:35.984Z,5.85
2023-02-28T14:28:28.150Z,5.80
2023-02-28T14:31:15.753Z,5.69
2023-02-28T14:34:24.114Z,5.56
2023-02-28T14:37:17.360Z,6.03
2023-02-28T14:40:03.042Z,5.64
2023-02-28T14:42:50.604Z,5.61
2023-02-28T14:45:38.469Z,5.87
2023-02-28T14:48:25.749Z,5.90
2023-02-28T14:51:11.387Z,5.78
2023-02-28T14:54:01.146Z,5.43
2023-02-28T14:56:45.401Z,5.42
2023-02-28T14:59:31.919Z,5.05
2023-02-28T15:02:26.004Z,5.26
2023-02-28T15:05:24.685Z,5.11
2023-02-28T15:08:16.431Z,5.02
2023-02-28T15:11:05.124Z,5.11
2023-02-28T15:13:51.432Z,4.88
2023-02-28T15:16:39.851Z,5.01
2023-02-28T15:19:27.189Z,5.13
2023-02-28T15:22:18.010Z,5.00
2023-02-28T15:25:03.733Z,5.12
2023-02-28T15:27:52.600Z,5.05
2023-02-28T15:30:36.633Z,4.94
2023-02-28T15:33:23.520Z,4.83
2023-02-28T15:36:13.665Z,5.13
2023-02-28T15:39:07.146Z,4.87
2023-02-28T15:42:19.668Z,5.12
2023-02-28T15:45:05.327Z,4.79
2023-02-28T15:47:50.186Z,5.18
2023-02-28T15:50:34.271Z,4.94
2023-02-28T15:53:21.693Z,5.43
2023-02-28T15:56:08.798Z,5.44
2023-02-28T15:58:55.615Z,5.37
2023-02-28T16:01:41.287Z,5.31
2023-02-28T16:04:30.667Z,5.11
2023-02-28T16:07:15.237Z,5.30
2023-02-28T16:09:59.479Z,5.35
2023-02-28T16:12:44.402Z,5.46
2023-02-28T16:15:30.497Z,5.74
2023-02-28T16:18:16.136Z,5.42
2023-02-28T16:21:00.192Z,5.30
2023-02-28T16:23:44.294Z,5.53
2023-02-28T16:26:29.398Z,5.33
2023-02-28T16:29:19.269Z,5.48
2023-02-28T16:32:06.307Z,5.85
2023-02-28T16:34:52.001Z,6.14
2023-02-28T16:37:36.113Z,6.17
2023-02-28T16:40:22.511Z,6.28
2023-02-28T16:43:12.336Z,5.80
2023-02-28T16:46:01.132Z,6.02
2023-02-28T16:48:45.878Z,6.20
2023-02-28T16:51:33.479Z,6.50
2023-02-28T16:54:19.042Z,6.00
2023-02-28T16:57:03.080Z,6.22
2023-02-28T16:59:47.156Z,6.46
2023-02-28T17:02:31.531Z,6.64
2023-02-28T17:05:16.687Z,6.60
2023-02-28T17:08:02.119Z,6.20
2023-02-28T17:10:46.116Z,5.53
2023-02-28T17:13:30.293Z,5.65
2023-02-28T17:16:23.126Z,5.67
2023-02-28T17:19:09.351Z,6.20
2023-02-28T17:21:54.093Z,5.34
2023-02-28T17:24:39.619Z,5.62
2023-02-28T17:27:23.706Z,5.67
2023-02-28T17:30:18.746Z,5.29
2023-02-28T17:33:02.846Z,5.37
2023-02-28T17:35:46.934Z,5.09
2023-02-28T17:38:30.997Z,5.20
2023-02-28T17:41:16.650Z,5.69
2023-02-28T17:44:00.750Z,5.74
2023-02-28T17:46:45.568Z,5.66
2023-02-28T17:49:29.640Z,5.82
2023-02-28T17:52:13.637Z,5.66
2023-02-28T17:54:57.958Z,5.28
2023-02-28T17:57:44.083Z,5.80
2023-02-28T18:00:28.618Z,5.94
2023-02-28T18:03:14.445Z,5.47
2023-02-28T18:05:58.634Z,5.57
2023-02-28T18:08:42.594Z,6.01
2023-02-28T18:11:27.221Z,6.18
2023-02-28T18:14:12.428Z,5.86
2023-02-28T18:16:57.643Z,5.96
2023-02-28T18:19:41.942Z,5.93
2023-02-28T18:22:25.770Z,5.93
2023-02-28T18:25:14.618Z,5.66
2023-02-28T18:28:00.924Z,5.35
2023-02-28T18:30:46.123Z,5.63
2023-02-28T18:33:29.930Z,5.48
2023-02-28T18:36:13.873Z,5.66
2023-02-28T18:38:57.691Z,5.24
2023-02-28T18:41:41.679Z,5.11
2023-02-28T18:44:25.525Z,4.86
2023-02-28T18:47:11.073Z,5.29
2023-02-28T18:49:55.122Z,5.12
2023-02-28T18:52:40.736Z,5.22
2023-02-28T18:55:24.768Z,5.16
2023-02-28T18:58:08.697Z,5.13
2023-02-28T19:00:52.847Z,4.95
2023-02-28T19:03:38.118Z,5.14
2023-02-28T19:06:22.141Z,5.50
2023-02-28T19:09:06.986Z,5.35
2023-02-28T19:11:50.938Z,5.25
2023-02-28T19:14:35.003Z,5.25
2023-02-28T19:17:19.098Z,5.03
2023-02-28T19:20:04.905Z,5.04
2023-02-28T19:22:48.898Z,4.83
2023-02-28T19:25:32.908Z,4.71
2023-02-28T19:28:16.783Z,4.56
2023-02-28T19:31:00.765Z,4.68
2023-02-28T19:33:44.994Z,4.46
2023-02-28T19:36:30.497Z,4.40
2023-02-28T19:39:14.524Z,4.38
2023-02-28T19:41:58.615Z,3.95
2023-02-28T19:44:43.397Z,4.27
2023-02-28T19:47:27.582Z,4.39
2023-02-28T19:50:12.497Z,4.36
2023-02-28T19:53:00.433Z,4.13
2023-02-28T19:55:44.845Z,4.26
2023-02-28T19:58:29.290Z,4.48
2023-02-28T20:01:15.759Z,3.93
2023-02-28T20:03:59.830Z,4.25
2023-02-28T20:06:43.746Z,4.28
2023-02-28T20:09:31.792Z,4.22
2023-02-28T20:12:23.989Z,4.30
2023-02-28T20:15:10.024Z,4.27
2023-02-28T20:17:53.936Z,4.31
2023-02-28T20:20:38.605Z,4.29
2023-02-28T20:23:22.499Z,4.24
2023-02-28T20:26:08.264Z,4.27
2023-02-28T20:28:52.151Z,3.90
2023-02-28T20:31:37.648Z,4.17
2023-02-28T20:34:23.344Z,3.99
2023-02-28T20:37:07.284Z,4.10
2023-02-28T20:39:53.109Z,3.88
2023-02-28T20:42:38.344Z,4.07
2023-02-28T20:45:22.375Z,4.25
2023-02-28T20:48:06.605Z,4.16
2023-02-28T20:50:50.820Z,4.39
2023-02-28T20:53:36.030Z,4.21
2023-02-28T20:56:21.313Z,4.27
2023-02-28T20:59:06.642Z,4.31
2023-02-28T21:01:50.682Z,4.28
2023-02-28T21:04:34.628Z,4.49
2023-02-28T21:07:18.527Z,4.36
2023-02-28T21:10:02.431Z,4.49
2023-02-28T21:12:50.700Z,4.74
2023-02-28T21:15:38.519Z,4.61
2023-02-28T21:18:22.586Z,4.90
2023-02-28T21:21:07.835Z,4.82
2023-02-28T21:23:51.964Z,4.81
2023-02-28T21:26:35.750Z,4.96
2023-02-28T21:29:19.588Z,5.28
2023-02-28T21:32:04.978Z,4.98
2023-02-28T21:34:48.809Z,5.33
2023-02-28T21:37:32.590Z,5.23
2023-02-28T21:40:16.772Z,5.17
2023-02-28T21:43:00.473Z,5.19
2023-02-28T21:45:44.279Z,5.66
2023-02-28T21:48:29.582Z,5.52
2023-02-28T21:51:16.046Z,5.45
2023-02-28T21:54:00.527Z,5.13
2023-02-28T21:56:44.611Z,5.14
2023-02-28T21:59:28.716Z,4.98
2023-02-28T22:02:12.895Z,5.41
2023-02-28T22:05:03.734Z,5.60
2023-02-28T22:07:47.607Z,5.08
2023-02-28T22:10:31.348Z,5.50
2023-02-28T22:13:15.226Z,5.48
2023-02-28T22:16:03.597Z,5.83
2023-02-28T22:18:47.950Z,5.11
2023-02-28T22:21:33.106Z,5.30
2023-02-28T22:24:17.987Z,5.30
2023-02-28T22:27:01.833Z,5.16
2023-02-28T22:29:47.432Z,5.16
2023-02-28T22:32:31.784Z,5.65
2023-02-28T22:35:15.856Z,5.48
2023-02-28T22:38:01.196Z,5.31
2023-02-28T22:40:45.734Z,5.35
2023-02-28T22:43:29.908Z,4.95
2023-02-28T22:46:15.141Z,5.27
2023-02-28T22:48:59.756Z,4.87
2023-02-28T22:51:43.900Z,4.72
2023-02-28T22:54:29.561Z,4.90
2023-02-28T22:57:13.632Z,5.25
2023-02-28T22:59:57.581Z,4.73
2023-02-28T23:02:41.603Z,4.92
2023-02-28T23:05:25.701Z,4.50
2023-02-28T23:08:09.806Z,4.60
2023-02-28T23:10:55.210Z,4.78
2023-02-28T23:13:39.299Z,4.35
2023-02-28T23:16:23.320Z,4.26
2023-02-28T23:19:10.023Z,4.74
2023-02-28T23:21:55.113Z,5.15
2023-02-28T23:24:39.507Z,4.76
2023-02-28T23:27:24.990Z,4.51
2023-02-28T23:30:11.185Z,4.58
2023-02-28T23:32:55.438Z,4.44
2023-02-28T23:35:39.464Z,4.33
2023-02-28T23:38:23.607Z,4.50
2023-02-28T23:41:11.142Z,4.62
2023-02-28T23:43:56.612Z,4.47
2023-02-28T23:46:40.629Z,4.26
2023-02-28T23:49:24.786Z,4.35
2023-02-28T23:52:08.758Z,4.53
2023-02-28T23:54:52.849Z,4.54
2023-02-28T23:57:36.860Z,4.44
